• Join FlightAware (Why Join?)
  • Login
  • US Flag 
02:44PM EST


 

Airport Tracker/Info


-or-


 

Live Flight TrackerFlight Track Log ✈ CDG4769 ✈ 18-Aug-2014 ✈ ZSAM / XMN - ZPPP / KMG

Flight Track Log - Related Links

Times and Time Zones

All times are in EDT time to prevent confusion due to time zone crossing. See the CDG4769 flight status page for this flight to view local times or setup timezone preferences in your user account.

Time Position Orientation Groundspeed Altitude Reporting Facility
EDT Latitude Longitude Course Direction KTS MPH feet Rate Location/Type
08:05PM 24.6320 117.0828 276° West  Level Estimated
08:06PM 24.6397 116.9878 275° West  Level Estimated
08:07PM 24.6472 116.8927 275° West  Level Estimated
08:08PM 24.6548 116.7976 275° West  Level Estimated
08:09PM 24.6622 116.7025 275° West  Level Estimated
08:10PM 24.6696 116.6074 275° West  Level Estimated
08:11PM 24.6770 116.5123 275° West  Level Estimated
08:12PM 24.6843 116.4172 275° West  Level Estimated
08:13PM 24.6915 116.3220 275° West  Level Estimated
08:14PM 24.6987 116.2269 275° West  Level Estimated
08:15PM 24.7057 116.1317 275° West  Level Estimated
08:16PM 24.7128 116.0366 275° West  Level Estimated
08:17PM 24.7198 115.9414 275° West  Level Estimated
08:18PM 24.7267 115.8462 275° West  Level Estimated
08:19PM 24.7336 115.7510 275° West  Level Estimated
08:20PM 24.7404 115.6557 275° West  Level Estimated
08:21PM 24.7471 115.5605 274° West  Level Estimated
08:22PM 24.7538 115.4653 274° West  Level Estimated
08:23PM 24.7604 115.3700 274° West  Level Estimated
08:24PM 24.7670 115.2748 274° West  Level Estimated
08:25PM 24.7735 115.1795 274° West  Level Estimated
08:26PM 24.7799 115.0842 274° West  Level Estimated
08:27PM 24.7863 114.9889 274° West  Level Estimated
08:28PM 24.7926 114.8936 274° West  Level Estimated
08:29PM 24.7989 114.7983 274° West  Level Estimated
08:30PM 24.8051 114.7030 274° West  Level Estimated
08:31PM 24.8112 114.6077 274° West  Level Estimated
08:32PM 24.8173 114.5124 274° West  Level Estimated
08:33PM 24.8233 114.4170 274° West  Level Estimated
08:34PM 24.8293 114.3217 274° West  Level Estimated
08:35PM 24.8352 114.2263 274° West  Level Estimated
08:36PM 24.8410 114.1309 274° West  Level Estimated
08:37PM 24.8468 114.0356 274° West  Level Estimated
08:38PM 24.8525 113.9402 274° West  Level Estimated
08:39PM 24.8581 113.8448 274° West  Level Estimated
08:40PM 24.8637 113.7494 274° West  Level Estimated
08:41PM 24.8693 113.6539 274° West  Level Estimated
08:42PM 24.8748 113.5585 274° West  Level Estimated
08:43PM 24.8802 113.4631 274° West  Level Estimated
08:44PM 24.8855 113.3677 274° West  Level Estimated
08:45PM 24.8908 113.2722 274° West  Level Estimated
08:46PM 24.8960 113.1767 273° West  Level Estimated
08:47PM 24.9012 113.0813 273° West  Level Estimated
08:48PM 24.9063 112.9858 273° West  Level Estimated
08:49PM 24.9114 112.8903 273° West  Level Estimated
08:50PM 24.9163 112.7948 273° West  Level Estimated
08:51PM 24.9213 112.6993 273° West  Level Estimated
08:52PM 24.9261 112.6038 273° West  Level Estimated
08:53PM 24.9309 112.5083 273° West  Level Estimated
08:54PM 24.9357 112.4128 273° West  Level Estimated
08:55PM 24.9404 112.3173 273° West  Level Estimated
08:56PM 24.9450 112.2217 273° West  Level Estimated
08:57PM 24.9496 112.1262 273° West  Level Estimated
08:58PM 24.9541 112.0307 273° West  Level Estimated
08:59PM 24.9585 111.9351 273° West  Level Estimated
09:00PM 24.9629 111.8395 273° West  Level Estimated
09:01PM 24.9672 111.7440 273° West  Level Estimated
09:02PM 24.9715 111.6484 273° West  Level Estimated
09:03PM 24.9756 111.5528 273° West  Level Estimated
09:04PM 24.9798 111.4572 273° West  Level Estimated
09:05PM 24.9839 111.3616 273° West  Level Estimated
09:06PM 24.9879 111.2660 273° West  Level Estimated
09:07PM 24.9918 111.1704 273° West  Level Estimated
09:08PM 24.9957 111.0748 273° West  Level Estimated
09:09PM 24.9995 110.9792 273° West  Level Estimated
09:10PM 25.0033 110.8836 273° West  Level Estimated
09:11PM 25.0070 110.7879 272° West  Level Estimated
09:12PM 25.0107 110.6923 272° West  Level Estimated
09:13PM 25.0142 110.5967 272° West  Level Estimated
09:14PM 25.0178 110.5010 272° West  Level Estimated
09:15PM 25.0212 110.4054 272° West  Level Estimated
09:16PM 25.0246 110.3097 272° West  Level Estimated
09:17PM 25.0280 110.2141 272° West  Level Estimated
09:18PM 25.0312 110.1184 272° West  Level Estimated
09:19PM 25.0345 110.0227 272° West  Level Estimated
09:20PM 25.0376 109.9270 272° West  Level Estimated
09:21PM 25.0407 109.8313 272° West  Level Estimated
09:22PM 25.0438 109.7357 272° West  Level Estimated
09:23PM 25.0467 109.6400 272° West  Level Estimated
09:24PM 25.0496 109.5443 272° West  Level Estimated
09:25PM 25.0525 109.4486 272° West  Level Estimated
09:26PM 25.0553 109.3529 272° West  Level Estimated
09:27PM 25.0580 109.2571 272° West  Level Estimated
09:28PM 25.0607 109.1614 272° West  Level Estimated
09:29PM 25.0633 109.0657 272° West  Level Estimated
09:30PM 25.0658 108.9700 272° West  Level Estimated
09:31PM 25.0683 108.8743 272° West  Level Estimated
09:32PM 25.0707 108.7785 272° West  Level Estimated
09:33PM 25.0731 108.6828 272° West  Level Estimated
09:34PM 25.0754 108.5871 272° West  Level Estimated
09:35PM 25.0776 108.4913 271° West  Level Estimated
09:36PM 25.0798 108.3956 271° West  Level Estimated
09:37PM 25.0819 108.2998 271° West  Level Estimated
09:38PM 25.0839 108.2041 271° West  Level Estimated
09:39PM 25.0859 108.1083 271° West  Level Estimated
09:40PM 25.0879 108.0126 271° West  Level Estimated
09:41PM 25.0897 107.9168 271° West  Level Estimated
09:42PM 25.0915 107.8210 271° West  Level Estimated
09:43PM 25.0933 107.7253 271° West  Level Estimated
09:44PM 25.0950 107.6295 271° West  Level Estimated
09:45PM 25.0966 107.5337 271° West  Level Estimated
09:46PM 25.0981 107.4380 271° West  Level Estimated
09:47PM 25.0996 107.3422 271° West  Level Estimated
09:48PM 25.1011 107.2464 271° West  Level Estimated
09:49PM 25.1024 107.1506 271° West  Level Estimated
09:50PM 25.1038 107.0548 271° West  Level Estimated
09:51PM 25.1050 106.9591 271° West  Level Estimated
09:52PM 25.1062 106.8633 271° West  Level Estimated
09:53PM 25.1073 106.7675 271° West  Level Estimated
09:54PM 25.1084 106.6717 271° West  Level Estimated
09:55PM 25.1094 106.5759 271° West  Level Estimated
09:56PM 25.1104 106.4801 271° West  Level Estimated
09:57PM 25.1112 106.3843 271° West  Level Estimated
09:58PM 25.1121 106.2885 271° West  Level Estimated
09:59PM 25.1128 106.1927 271° West  Level Estimated
10:00PM 25.1135 106.0969 270° West  Level Estimated
10:01PM 25.1142 106.0011 270° West  Level Estimated
10:02PM 25.1147 105.9053 270° West  Level Estimated
10:03PM 25.1152 105.8095 270° West  Level Estimated
10:04PM 25.1157 105.7137 270° West  Level Estimated
10:05PM 25.1161 105.6179 270° West  Level Estimated
10:06PM 25.1164 105.5221 270° West  Level Estimated
10:07PM 25.1167 105.4263 270° West  Level Estimated
10:08PM 25.1169 105.3305 270° West  Level Estimated
10:09PM 25.1170 105.2347 270° West  Level Estimated
10:10PM 25.1171 105.1389 270° West  Level Estimated
10:11PM 25.1171 105.0431 270° West  Level Estimated
10:12PM 25.1171 104.9473 270° West  Level Estimated
10:13PM 25.1170 104.8515 270° West  Level Estimated
10:14PM 25.1168 104.7557 270° West  Level Estimated
10:15PM 25.1166 104.6599 270° West  Level Estimated
10:16PM 25.1163 104.5640 270° West  Level Estimated
10:17PM 25.1160 104.4682 270° West  Level Estimated
10:18PM 25.1156 104.3724 270° West  Level Estimated
10:19PM 25.1151 104.2766 270° West  Level Estimated
10:20PM 25.1146 104.1808 270° West  Level Estimated
10:21PM 25.1140 104.0850 270° West  Level Estimated
10:22PM 25.1133 103.9892 270° West  Level Estimated
10:23PM 25.1126 103.8934 270° West  Level Estimated
10:24PM 25.1118 103.7976 270° West  Level Estimated
10:25PM 25.1110 103.7018 269° West  Level Estimated
10:26PM 25.1101 103.6060 269° West  Level Estimated
10:27PM 25.1091 103.5102 269° West  Level Estimated
10:28PM 25.1081 103.4145 269° West  Level Estimated
10:29PM 25.1070 103.3187 269° West  Level Estimated
10:30PM 25.1059 103.2229 269° West  Level Estimated
10:31PM 25.1046 103.1271 269° West  Level Estimated
10:32PM 25.1034 103.0313 269° West  Level Estimated
10:33PM 25.1020 102.9355 269° West  Level Estimated
10:34PM 25.1019 102.9292 269° West  Level Estimated
10:35PM 25.1019 102.9292 North  Level Estimated
10:36PM 25.1019 102.9292 North  Level Estimated
10:37PM 25.1019 102.9292 North  Level Estimated
10:38PM 25.1019 102.9292 North  Level Estimated
10:39PM 25.1019 102.9292 North  Level Estimated
10:40PM 25.1019 102.9292 North  Level Estimated
10:41PM 25.1019 102.9292 North  Level Estimated
10:42PM 25.1019 102.9292 North  Level Estimated
10:43PM 25.1019 102.9292 North  Level Estimated
10:44PM 25.1019 102.9292 North  Level Estimated
10:45PM 25.1019 102.9292 North  Level Estimated
10:46PM 25.1019 102.9292 North  Level Estimated
10:47PM 25.1019 102.9292 North  Level Estimated
10:48PM 25.1019 102.9292 North  Level Estimated
10:49PM 25.1019 102.9292 North  Level Estimated